Fv/la Perouse — FUJT — position and weather

sailwx.info

Track history (hours):
 
Tides and Currents Weather Stations Pressure Air Temp Water Temp Dewpoint Dewpoint Depression Visibility Wind Speed Wind Dir Waves Ship Positions

Fv/la Perouse

Last reported at 2017-Sep-19 04:27 UTC. Time now 2017-Sep-22 17:22 UTC.
Position N 43°52' W 003°08'.

Length 24 m; draft 4.1 m.

Type: Fishing. MMSI: 228174600.

Date/timePositionNaut miles runAvg speedWind from/ knotsBaromVisibWave heightAir tempDewpointWater temp
2017-Sep-19 04:27N 43°52' W 003°08'4 8.7
2017-Sep-19 04:00N 43°49' W 003°12'4 9.0
2017-Sep-19 03:31N 43°46' W 003°16'5 9.0
2017-Sep-19 03:01N 43°45' W 003°22'  
2017-Sep-15 21:06N 47°48' W 004°55'210.6
2017-Sep-15 20:56N 47°50' W 004°54'510.5
2017-Sep-15 20:30N 47°54' W 004°52'510.3
2017-Sep-15 20:00N 47°59' W 004°49'5 9.2
2017-Sep-15 19:30N 48°03' W 004°46'4 9.0
2017-Sep-15 19:00N 48°05' W 004°40'5 9.8
2017-Sep-15 18:30N 48°06' W 004°33'510.0
2017-Sep-15 18:00N 48°07' W 004°26'4 8.2
2017-Sep-15 17:30N 48°06' W 004°20'0 0.1
2017-Sep-15 17:00N 48°06' W 004°20'0 0.1
2017-Sep-15 16:30N 48°06' W 004°20'0 0.0
2017-Sep-15 16:00N 48°06' W 004°20'0 0.0
2017-Sep-15 15:30N 48°06' W 004°20'  
2017-Sep-11 05:26N 48°06' W 004°19'0 0.0
2017-Sep-11 05:00N 48°06' W 004°19'3 6.4
2017-Sep-11 04:30N 48°08' W 004°23'2 3.2
2017-Sep-11 04:00N 48°08' W 004°26'510.9
2017-Sep-11 03:31N 48°06' W 004°34'611.0
2017-Sep-11 03:00N 48°06' W 004°42'510.6
2017-Sep-11 02:30N 48°01' W 004°46'611.3
2017-Sep-11 02:01N 47°56' W 004°43'  
Track history (hours):
 
Tides and Currents Weather Stations Pressure Air Temp Water Temp Dewpoint Dewpoint Depression Visibility Wind Speed Wind Dir Waves Ship Positions

Fv/la Perouse

Last reported at 2017-Sep-19 04:27 UTC. Time now 2017-Sep-22 17:22 UTC.
Position N 43°52' W 003°08'.

Length 24 m; draft 4.1 m.

Type: Fishing. MMSI: 228174600.

Date/timePositionNaut miles runAvg speedWind from/ knotsBaromVisibWave heightAir tempDewpointWater temp
2017-Sep-19 04:27N 43°52' W 003°08'4 8.7
2017-Sep-19 04:00N 43°49' W 003°12'4 9.0
2017-Sep-19 03:31N 43°46' W 003°16'5 9.0
2017-Sep-19 03:01N 43°45' W 003°22'  
2017-Sep-15 21:06N 47°48' W 004°55'210.6
2017-Sep-15 20:56N 47°50' W 004°54'510.5
2017-Sep-15 20:30N 47°54' W 004°52'510.3
2017-Sep-15 20:00N 47°59' W 004°49'5 9.2
2017-Sep-15 19:30N 48°03' W 004°46'4 9.0
2017-Sep-15 19:00N 48°05' W 004°40'5 9.8
2017-Sep-15 18:30N 48°06' W 004°33'510.0
2017-Sep-15 18:00N 48°07' W 004°26'4 8.2
2017-Sep-15 17:30N 48°06' W 004°20'0 0.1
2017-Sep-15 17:00N 48°06' W 004°20'0 0.1
2017-Sep-15 16:30N 48°06' W 004°20'0 0.0
2017-Sep-15 16:00N 48°06' W 004°20'0 0.0
2017-Sep-15 15:30N 48°06' W 004°20'  
2017-Sep-11 05:26N 48°06' W 004°19'0 0.0
2017-Sep-11 05:00N 48°06' W 004°19'3 6.4
2017-Sep-11 04:30N 48°08' W 004°23'2 3.2
2017-Sep-11 04:00N 48°08' W 004°26'510.9
2017-Sep-11 03:31N 48°06' W 004°34'611.0
2017-Sep-11 03:00N 48°06' W 004°42'510.6
2017-Sep-11 02:30N 48°01' W 004°46'611.3
2017-Sep-11 02:01N 47°56' W 004°43'  

Dump ship's entire track history